Time;durP1;ratioP1;P1;durP2;ratioP2;P2;SDS_P1;SDS_P2;PMS_P1;PMS_P2;Temp;Humidity;BMP_temperature;BMP_pressure;BME280_temperature;BME280_humidity;BME280_pressure;Samples;Min_cycle;Max_cycle;Signal;HPM_P1;HPM_P2
2022/01/25 00:32:06;;;;;;;;;73.75;55.75;;;;;6.17;59.69;102665.47;4938474;28;45480;-89
2022/01/25 00:34:31;;;;;;;;;69.25;53.00;;;;;6.19;59.82;102687.50;4938844;28;45370;-89
2022/01/25 00:36:56;;;;;;;;;58.67;48.67;;;;;6.11;59.41;102685.78;4937618;28;45490;-89
2022/01/25 00:39:22;;;;;;;;;64.25;52.50;;;;;5.93;59.47;102657.69;4922171;28;45501;-89
2022/01/25 00:41:47;;;;;;;;;71.33;56.00;;;;;5.97;59.28;102672.66;4938352;28;45886;-88
2022/01/25 00:44:13;;;;;;;;;69.75;53.00;;;;;5.81;59.56;102679.75;4937760;28;45457;-89
2022/01/25 00:46:39;;;;;;;;;62.25;51.75;;;;;5.97;59.84;102701.75;4936783;28;45474;-89
2022/01/25 00:49:04;;;;;;;;;62.50;50.00;;;;;5.79;59.34;102680.66;4947188;28;45415;-89
2022/01/25 00:54:09;;;;;;;;;59.75;49.25;;;;;5.58;59.14;102671.97;4938194;28;45456;-89
2022/01/25 00:56:37;;;;;;;;;66.33;54.00;;;;;5.39;59.28;102639.44;4937879;28;48039;-89
2022/01/25 00:59:06;;;;;;;;;70.33;53.00;;;;;5.44;59.50;102656.16;5005152;28;45868;-89
2022/01/25 01:01:33;;;;;;;;;66.00;52.33;;;;;5.54;59.60;102708.06;5036848;28;45276;-89
2022/01/25 01:03:59;;;;;;;;;71.00;54.67;;;;;5.49;60.38;102686.06;5035865;28;45353;-89
2022/01/25 01:06:24;;;;;;;;;70.00;53.67;;;;;5.26;60.14;102661.47;5026430;28;47049;-89
2022/01/25 01:08:50;;;;;;;;;69.00;53.00;;;;;5.43;61.08;102686.06;5036262;28;45555;-89
2022/01/25 01:11:24;;;;;;;;;64.25;52.00;;;;;5.28;61.26;102679.06;5036679;28;45335;-89
2022/01/25 01:29:54;;;;;;;;;70.33;53.67;;;;;5.13;62.53;102695.84;5035039;28;45525;-89
2022/01/25 01:50:02;;;;;;;;;62.50;49.75;;;;;4.92;63.08;102682.69;5036407;28;45403;-89
2022/01/25 01:52:28;;;;;;;;;66.67;53.00;;;;;5.04;63.25;102681.78;5035353;28;45479;-89
2022/01/25 01:54:53;;;;;;;;;65.33;51.00;;;;;5.10;62.74;102700.25;5037187;28;45227;-89
2022/01/25 01:57:19;;;;;;;;;65.50;51.00;;;;;4.79;62.71;102646.66;5035289;28;46049;-89
2022/01/25 01:59:44;;;;;;;;;67.75;53.75;;;;;5.04;63.36;102700.25;5036166;28;45459;-89
2022/01/25 02:02:10;;;;;;;;;63.25;51.00;;;;;5.05;62.81;102689.72;5036491;28;45494;-89
2022/01/25 02:04:35;;;;;;;;;59.25;48.25;;;;;5.16;62.76;102712.56;5018618;28;45566;-89
2022/01/25 02:07:01;;;;;;;;;64.50;52.25;;;;;5.03;62.95;102669.47;5034925;28;47285;-89
2022/01/25 02:09:26;;;;;;;;;69.25;53.00;;;;;5.16;62.90;102705.50;5035850;28;45379;-88
2022/01/25 02:11:51;;;;;;;;;69.00;51.75;;;;;5.07;63.13;102694.97;5035554;28;45242;-89
2022/01/25 02:14:17;;;;;;;;;57.50;47.75;;;;;5.08;63.42;102700.25;5036278;28;45307;-89
2022/01/25 02:24:42;;;;;;;;;67.25;51.75;;;;;4.86;63.28;102704.69;5036016;28;45304;-89
2022/01/25 02:27:08;;;;;;;;;58.75;47.00;;;;;4.95;63.64;102687.94;5035605;28;45508;-89
2022/01/25 02:29:35;;;;;;;;;61.50;48.25;;;;;4.95;63.46;102687.94;5035879;28;45337;-89
2022/01/25 02:32:00;;;;;;;;;66.00;50.25;;;;;4.77;63.15;102653.69;5036184;28;45578;-89
2022/01/25 02:34:26;;;;;;;;;64.25;48.75;;;;;5.02;63.57;102705.53;5036041;28;45508;-89
2022/01/25 02:37:03;;;;;;;;;57.25;43.25;;;;;4.91;63.18;102676.53;5036376;28;45436;-89
2022/01/25 02:39:30;;;;;;;;;59.75;49.00;;;;;5.05;63.60;102702.00;5017490;28;45514;-90
2022/01/25 02:41:56;;;;;;;;;58.75;47.25;;;;;5.06;63.22;102703.78;5035837;28;45475;-89
2022/01/25 02:44:26;;;;;;;;;66.00;47.25;;;;;4.86;63.32;102670.38;5035519;28;45394;-89
2022/01/25 02:49:37;;;;;;;;;54.50;43.00;;;;;4.99;63.24;102697.63;5035637;28;45324;-89
2022/01/25 02:52:04;;;;;;;;;50.50;41.75;;;;;4.85;63.51;102676.53;5032503;28;45400;-89
2022/01/25 02:54:30;;;;;;;;;47.50;40.50;;;;;4.99;63.42;102708.19;5035381;28;45646;-89
2022/01/25 02:56:55;;;;;;;;;55.75;43.00;;;;;5.02;63.47;102707.28;5035451;28;45474;-89
2022/01/25 02:59:21;;;;;;;;;54.75;42.75;;;;;4.87;63.69;102687.94;5034578;28;45425;-89
2022/01/25 03:01:47;;;;;;;;;48.25;41.75;;;;;4.98;63.57;102700.25;5017750;28;45531;-89
2022/01/25 03:04:14;;;;;;;;;48.75;41.25;;;;;4.70;63.32;102682.69;5035725;28;45243;-89
2022/01/25 03:06:42;;;;;;;;;47.00;39.75;;;;;4.76;63.63;102688.84;5035456;28;46698;-89
2022/01/25 03:09:08;;;;;;;;;49.00;40.75;;;;;4.71;63.70;102683.56;5034707;28;45506;-89
2022/01/25 03:11:34;;;;;;;;;39.25;37.50;;;;;4.70;63.94;102693.25;5035088;28;45469;-89
2022/01/25 03:14:03;;;;;;;;;47.75;42.00;;;;;4.65;64.11;102699.41;5033526;28;45305;-89
2022/01/25 03:19:28;;;;;;;;;48.00;38.25;;;;;4.61;64.54;102679.19;5034379;28;45423;-89
2022/01/25 03:21:51;;;;;;;;;43.00;37.50;;;;;4.49;64.37;102659.81;5034533;28;45268;-89
2022/01/25 03:24:16;;;;;;;;;50.50;40.75;;;;;4.70;64.13;102705.56;5015267;28;45509;-89
2022/01/25 03:26:42;;;;;;;;;48.50;37.00;;;;;4.52;64.55;102685.31;5034988;28;45455;-89
2022/01/25 03:29:07;;;;;;;;;40.25;32.25;;;;;4.68;64.42;102700.28;5034968;28;47263;-89
2022/01/25 03:31:33;;;;;;;;;52.00;40.75;;;;;4.57;64.16;102683.59;5035355;28;45520;-89
2022/01/25 03:33:59;;;;;;;;;47.75;39.75;;;;;4.70;64.04;102687.97;5031557;28;45277;-89
2022/01/25 03:36:25;;;;;;;;;48.75;41.75;;;;;4.68;64.09;102671.25;5034788;28;46172;-89
2022/01/25 03:38:51;;;;;;;;;55.00;40.25;;;;;4.66;64.63;102672.13;5033906;28;45406;-89
2022/01/25 03:41:16;;;;;;;;;58.25;42.25;;;;;4.79;63.68;102686.22;5034637;28;45479;-89
2022/01/25 03:43:44;;;;;;;;;54.00;44.25;;;;;4.56;64.01;102667.75;5034959;28;45402;-89
2022/01/25 03:46:19;;;;;;;;;52.75;44.00;;;;;4.73;64.12;102673.91;5034973;28;46525;-89
2022/01/25 03:51:29;;;;;;;;;47.25;37.75;;;;;4.67;64.10;102677.41;5034745;28;45451;-90
2022/01/25 03:53:55;;;;;;;;;58.00;40.00;;;;;4.65;64.27;102671.25;5034709;28;45225;-89
2022/01/25 03:56:22;;;;;;;;;49.00;39.75;;;;;4.54;64.21;102669.50;5034632;28;45790;-89
2022/01/25 03:58:50;;;;;;;;;54.50;43.50;;;;;4.60;63.92;102680.06;5034547;28;45447;-89
2022/01/25 04:01:16;;;;;;;;;56.25;43.50;;;;;4.41;64.09;102660.72;5034965;28;45480;-89
2022/01/25 04:03:49;;;;;;;;;53.50;39.75;;;;;4.37;64.05;102651.91;5035243;28;45577;-88
2022/01/25 04:06:19;;;;;;;;;44.75;39.25;;;;;4.48;64.58;102668.63;5034180;28;46320;-89
2022/01/25 04:08:45;;;;;;;;;55.75;42.75;;;;;4.42;64.44;102644.00;5034514;28;45396;-89
2022/01/25 04:11:11;;;;;;;;;48.75;39.50;;;;;4.44;63.93;102632.59;5016397;28;45487;-88
2022/01/25 04:13:36;;;;;;;;;46.50;39.00;;;;;4.47;64.13;102664.25;5034684;28;45222;-88
2022/01/25 04:16:09;;;;;;;;;46.50;39.75;;;;;4.63;64.00;102674.78;5035206;28;45388;-89
2022/01/25 04:18:48;;;;;;;;;51.00;39.25;;;;;4.57;64.33;102651.94;5016781;28;46241;-89
2022/01/25 04:21:28;;;;;;;;;48.25;41.50;;;;;4.69;64.36;102677.44;5034065;28;45519;-89
2022/01/25 04:26:38;;;;;;;;;51.00;41.25;;;;;4.63;64.56;102683.56;5034263;28;45379;-89
2022/01/25 04:29:03;;;;;;;;;53.25;41.25;;;;;4.63;64.63;102694.13;5034264;28;45430;-89
2022/01/25 04:31:29;;;;;;;;;43.50;37.50;;;;;4.57;64.22;102688.88;5016302;28;45405;-89
2022/01/25 04:36:58;;;;;;;;;55.50;39.00;;;;;4.63;64.63;102672.16;5033802;28;45405;-89
2022/01/25 04:53:18;;;;;;;;;41.25;37.00;;;;;4.39;64.31;102668.63;5037818;28;45513;-89
2022/01/25 04:55:51;;;;;;;;;42.00;35.50;;;;;4.52;64.13;102693.22;5019727;28;45490;-89
2022/01/25 04:58:25;;;;;;;;;43.75;36.75;;;;;4.62;63.94;102705.56;5037524;28;45409;-89
2022/01/25 05:00:51;;;;;;;;;38.75;34.25;;;;;4.43;64.60;102674.78;5037349;28;45301;-89
2022/01/25 05:03:23;;;;;;;;;48.75;38.00;;;;;4.44;64.40;102668.63;5019510;28;45381;-89
2022/01/25 05:05:59;;;;;;;;;45.75;38.25;;;;;4.43;64.40;102669.50;5037056;28;45401;-89
2022/01/25 05:08:40;;;;;;;;;45.00;39.75;;;;;4.51;64.57;102673.03;5037123;28;46478;-89
2022/01/25 05:11:10;;;;;;;;;41.75;38.00;;;;;4.59;64.40;102686.19;5037256;28;45381;-89
2022/01/25 05:16:14;;;;;;;;;49.50;39.50;;;;;4.66;64.63;102703.78;5038074;28;45278;-89
2022/01/25 05:18:44;;;;;;;;;42.50;36.25;;;;;4.49;64.05;102667.72;5036581;28;46223;-89
2022/01/25 05:23:54;;;;;;;;;49.50;42.00;;;;;4.66;64.63;102695.88;5037084;28;45293;-89
2022/01/25 05:26:20;;;;;;;;;56.00;42.25;;;;;4.60;64.34;102688.84;5019155;28;45461;-89
2022/01/25 05:28:45;;;;;;;;;52.25;40.50;;;;;4.44;64.55;102651.03;5018971;28;47447;-89
2022/01/25 05:31:11;;;;;;;;;48.00;40.50;;;;;4.69;64.23;102685.34;5037182;28;45270;-89
2022/01/25 05:33:36;;;;;;;;;50.00;41.50;;;;;4.69;64.78;102691.50;5035689;28;45459;-89
2022/01/25 05:36:02;;;;;;;;;41.50;36.25;;;;;4.57;64.92;102677.41;5018642;28;45493;-89
2022/01/25 05:38:27;;;;;;;;;47.00;37.50;;;;;4.51;64.44;102680.06;5036056;28;45402;-89
2022/01/25 05:41:01;;;;;;;;;55.25;43.75;;;;;4.73;64.82;102712.59;5035373;28;45961;-89
2022/01/25 05:46:02;;;;;;;;;49.25;41.50;;;;;4.58;64.76;102698.53;5038143;28;45484;-89
2022/01/25 05:48:31;;;;;;;;;49.25;40.75;;;;;4.47;64.37;102677.44;5036148;28;45555;-89
2022/01/25 05:50:57;;;;;;;;;52.25;42.00;;;;;4.57;64.59;102680.94;5036215;28;45623;-90
2022/01/25 05:53:23;;;;;;;;;47.00;40.25;;;;;4.76;64.81;102712.59;5036414;28;45360;-89
2022/01/25 05:55:49;;;;;;;;;57.00;43.00;;;;;4.69;64.52;102702.03;5018583;28;45421;-90
2022/01/25 05:58:15;;;;;;;;;48.50;40.00;;;;;4.68;64.55;102704.69;5036372;28;46775;-89
2022/01/25 06:00:40;;;;;;;;;49.50;40.25;;;;;4.65;64.91;102694.13;5016752;28;45502;-88
2022/01/25 06:03:07;;;;;;;;;53.50;39.50;;;;;4.82;64.48;102692.34;5036466;28;45619;-88
2022/01/25 06:05:36;;;;;;;;;44.75;38.00;;;;;4.84;64.50;102705.56;5035392;28;45435;-88
2022/01/25 06:08:03;;;;;;;;;45.25;41.25;;;;;4.56;64.77;102663.34;5016564;28;47372;-88
2022/01/25 06:10:29;;;;;;;;;52.50;43.50;;;;;4.62;65.03;102675.69;5016768;28;45889;-89
2022/01/25 06:12:54;;;;;;;;;44.50;36.50;;;;;4.60;64.38;102651.06;5018003;28;45416;-88
2022/01/25 06:15:20;;;;;;;;;60.75;41.25;;;;;4.73;64.36;102673.03;5034860;28;45359;-89
2022/01/25 06:17:45;;;;;;;;;50.25;43.25;;;;;4.76;64.45;102673.00;5015828;28;47213;-89
2022/01/25 06:20:11;;;;;;;;;52.50;41.25;;;;;4.84;64.74;102698.53;5016112;28;45486;-88
2022/01/25 06:22:37;;;;;;;;;50.50;40.75;;;;;4.70;64.65;102673.91;5035018;28;45475;-88
2022/01/25 06:25:03;;;;;;;;;47.25;38.25;;;;;4.86;64.80;102695.91;5028238;28;45389;-88
2022/01/25 06:27:28;;;;;;;;;55.75;44.00;;;;;4.89;64.57;102711.72;5016566;28;48832;-88
2022/01/25 06:29:54;;;;;;;;;57.50;42.25;;;;;4.89;64.62;102699.41;5032854;28;45592;-88
2022/01/25 06:32:20;;;;;;;;;56.25;45.00;;;;;4.72;65.13;102676.56;5034116;28;45602;-88
2022/01/25 06:34:46;;;;;;;;;53.25;40.00;;;;;4.64;64.52;102684.44;5034888;28;45476;-88
2022/01/25 06:37:12;;;;;;;;;53.25;42.75;;;;;4.78;64.54;102698.50;5034895;28;46272;-88
2022/01/25 06:39:39;;;;;;;;;55.25;42.75;;;;;4.97;64.83;102706.44;5017324;28;45537;-88
2022/01/25 06:42:06;;;;;;;;;55.50;43.50;;;;;4.94;64.83;102698.53;5017002;28;45416;-88
2022/01/25 06:44:34;;;;;;;;;56.00;43.25;;;;;4.96;64.65;102707.31;5035039;28;45547;-88
2022/01/25 06:46:59;;;;;;;;;55.75;44.50;;;;;4.88;64.74;102697.66;5034426;28;46640;-88
2022/01/25 06:49:25;;;;;;;;;53.25;43.50;;;;;4.73;64.61;102675.66;5034944;28;45347;-88
2022/01/25 06:51:50;;;;;;;;;55.75;43.25;;;;;4.96;64.89;102699.41;5017856;28;45311;-88
2022/01/25 06:54:15;;;;;;;;;48.75;41.00;;;;;4.97;64.55;102693.22;5034974;28;45473;-88
2022/01/25 06:56:41;;;;;;;;;53.25;44.50;;;;;4.80;64.94;102667.72;5016514;28;46393;-88
2022/01/25 06:59:07;;;;;;;;;43.75;39.75;;;;;4.81;64.80;102693.25;5034627;28;45392;-88
2022/01/25 07:01:32;;;;;;;;;57.50;44.00;;;;;5.00;64.65;102714.31;5035142;28;45743;-88
2022/01/25 07:03:58;;;;;;;;;58.00;40.25;;;;;4.83;64.58;102694.09;5036546;28;45262;-88
2022/01/25 07:06:23;;;;;;;;;56.75;44.75;;;;;4.81;64.63;102676.53;5035482;28;46507;-88
2022/01/25 07:08:48;;;;;;;;;54.50;43.25;;;;;4.84;64.57;102666.84;5034050;28;45432;-88
2022/01/25 07:11:14;;;;;;;;;59.00;44.75;;;;;4.78;64.86;102671.25;5034049;28;45774;-88
2022/01/25 07:13:39;;;;;;;;;56.00;43.75;;;;;4.96;64.67;102702.91;5035474;28;45453;-88
2022/01/25 07:16:05;;;;;;;;;54.75;43.50;;;;;5.03;65.24;102702.03;5034352;28;45474;-88
2022/01/25 07:18:31;;;;;;;;;54.50;40.00;;;;;4.89;64.50;102693.25;5035874;28;45451;-88
2022/01/25 07:20:57;;;;;;;;;57.75;44.00;;;;;4.93;65.11;102702.03;5017302;28;45678;-88
2022/01/25 07:23:22;;;;;;;;;60.00;46.25;;;;;4.78;65.12;102689.72;5017661;28;45318;-88
2022/01/25 07:25:49;;;;;;;;;48.25;39.75;;;;;4.98;65.36;102716.09;5035319;28;45980;-88
2022/01/25 07:28:14;;;;;;;;;57.25;44.25;;;;;5.01;65.27;102726.66;5016883;28;45588;-88
2022/01/25 07:30:40;;;;;;;;;51.75;43.25;;;;;4.87;64.79;102684.44;5032701;28;45659;-88
2022/01/25 07:33:07;;;;;;;;;52.00;43.00;;;;;5.01;64.97;102729.31;5018574;28;45658;-88
2022/01/25 07:35:33;;;;;;;;;61.50;46.00;;;;;4.90;65.28;102697.63;5035113;28;45364;-88
2022/01/25 07:37:59;;;;;;;;;56.50;44.50;;;;;4.86;65.01;102715.22;5017107;28;45615;-88
2022/01/25 07:40:24;;;;;;;;;53.50;43.25;;;;;4.86;65.56;102719.63;5035525;28;46062;-87
2022/01/25 07:42:50;;;;;;;;;56.75;43.75;;;;;4.75;65.45;102708.19;5035840;28;45691;-88
2022/01/25 07:45:15;;;;;;;;;61.00;45.50;;;;;4.77;65.18;102703.81;5022862;28;46809;-87
2022/01/25 07:47:41;;;;;;;;;49.25;39.50;;;;;5.01;65.25;102747.78;5034758;28;45461;-87
2022/01/25 07:50:08;;;;;;;;;56.75;45.00;;;;;4.85;65.50;102702.91;5034991;28;45417;-88
2022/01/25 07:52:34;;;;;;;;;56.00;44.25;;;;;4.77;65.55;102698.53;5017516;28;45544;-87
2022/01/25 07:55:00;;;;;;;;;53.50;43.50;;;;;4.95;65.31;102724.88;5032885;28;46023;-92
2022/01/25 07:57:28;;;;;;;;;54.75;43.25;;;;;5.04;65.20;102748.63;5036631;28;45510;-87
2022/01/25 07:59:55;;;;;;;;;58.75;44.25;;;;;4.78;65.54;102714.34;5016888;28;45487;-88
2022/01/25 08:02:20;;;;;;;;;51.00;42.50;;;;;4.97;65.19;102757.44;5017259;28;45468;-87
2022/01/25 08:04:46;;;;;;;;;45.25;41.50;;;;;4.84;65.26;102716.13;5035254;28;45612;-87
2022/01/25 08:07:12;;;;;;;;;49.00;40.75;;;;;4.65;65.05;102680.94;5035930;28;45392;-87
2022/01/25 08:09:38;;;;;;;;;48.25;39.00;;;;;4.80;65.24;102720.50;5018511;28;45437;-87
2022/01/25 08:12:03;;;;;;;;;46.75;41.25;;;;;5.01;65.35;102758.34;5035532;28;45266;-87
2022/01/25 08:14:29;;;;;;;;;52.00;39.50;;;;;4.79;65.32;102724.03;5034406;28;46614;-87
2022/01/25 08:16:54;;;;;;;;;49.50;40.25;;;;;4.76;65.21;102734.56;5035529;28;45235;-87
2022/01/25 08:19:20;;;;;;;;;52.75;41.50;;;;;4.71;66.00;102736.31;5034680;28;45542;-87
2022/01/25 08:21:47;;;;;;;;;52.50;44.25;;;;;4.59;66.10;102734.53;5017975;28;45596;-87
2022/01/25 08:24:15;;;;;;;;;53.50;41.00;;;;;4.71;65.72;102723.13;5034194;28;46498;-87
2022/01/25 08:26:44;;;;;;;;;55.25;42.00;;;;;4.63;66.05;102727.53;5036197;28;45534;-87
2022/01/25 08:29:09;;;;;;;;;57.50;46.25;;;;;4.86;66.02;102756.59;5038105;28;45487;-87
2022/01/25 08:31:36;;;;;;;;;56.00;44.50;;;;;4.61;66.27;102698.50;5038347;28;45411;-87
2022/01/25 08:34:02;;;;;;;;;53.75;43.25;;;;;4.72;65.80;102713.47;5021217;28;47402;-87
2022/01/25 08:36:28;;;;;;;;;60.00;45.25;;;;;4.98;66.00;102753.94;5038946;28;45198;-88
2022/01/25 08:38:54;;;;;;;;;53.00;43.00;;;;;5.00;65.78;102757.44;5039871;28;45486;-87
2022/01/25 08:41:20;;;;;;;;;59.25;44.75;;;;;5.03;65.88;102760.09;5038541;28;45498;-87
2022/01/25 08:43:46;;;;;;;;;48.25;41.00;;;;;4.89;65.85;102746.88;5039115;28;45460;-88
2022/01/25 08:46:12;;;;;;;;;61.00;44.25;;;;;5.07;65.77;102758.31;5040205;28;45281;-87
2022/01/25 08:48:38;;;;;;;;;56.50;45.75;;;;;4.88;65.74;102731.94;5041083;28;45422;-88
2022/01/25 08:51:04;;;;;;;;;60.75;47.00;;;;;4.98;66.05;102740.75;5042528;28;45372;-87
2022/01/25 08:53:30;;;;;;;;;57.00;46.50;;;;;5.05;66.10;102742.50;5024040;28;48136;-87
2022/01/25 08:55:55;;;;;;;;;56.50;44.50;;;;;4.97;66.04;102753.94;5025758;28;45542;-87
2022/01/25 08:58:20;;;;;;;;;60.75;45.00;;;;;5.00;65.57;102735.44;5043695;28;45769;-87
2022/01/25 09:00:46;;;;;;;;;61.00;46.50;;;;;5.09;66.05;102756.56;5025751;28;45395;-88
2022/01/25 09:03:12;;;;;;;;;58.50;46.50;;;;;5.12;65.72;102775.03;5042220;28;46250;-87
2022/01/25 09:05:37;;;;;;;;;52.25;41.75;;;;;4.89;65.49;102732.81;5039458;28;45756;-87
2022/01/25 09:08:05;;;;;;;;;54.75;41.75;;;;;4.86;65.72;102709.09;5042456;28;45500;-87
2022/01/25 09:10:30;;;;;;;;;57.75;44.25;;;;;5.09;65.51;102761.84;5040892;28;45752;-87
2022/01/25 09:12:56;;;;;;;;;50.50;42.75;;;;;4.93;66.21;102744.25;5042261;28;46065;-87
2022/01/25 09:15:22;;;;;;;;;56.75;45.00;;;;;4.89;65.50;102717.00;5024531;28;45976;-87
2022/01/25 09:17:48;;;;;;;;;57.25;42.25;;;;;4.94;65.96;102769.78;5043832;28;45856;-87
2022/01/25 09:20:14;;;;;;;;;54.75;42.75;;;;;5.03;65.89;102782.97;5044578;28;45419;-88
2022/01/25 09:22:39;;;;;;;;;56.75;45.50;;;;;4.84;66.02;102739.88;5025806;28;45488;-87
2022/01/25 09:25:06;;;;;;;;;53.25;44.25;;;;;5.06;65.72;102775.03;5027030;28;45377;-87
2022/01/25 09:27:31;;;;;;;;;60.00;46.25;;;;;4.80;66.75;102762.72;5045040;28;45329;-88
2022/01/25 09:29:56;;;;;;;;;55.25;39.50;;;;;4.86;65.90;102751.31;5039072;28;45376;-88
2022/01/25 09:32:22;;;;;;;;;58.00;44.50;;;;;5.01;66.44;102763.59;5033960;28;46331;-88
2022/01/25 09:34:47;;;;;;;;;53.75;43.25;;;;;5.07;66.12;102782.94;5042175;28;45340;-89
2022/01/25 09:37:13;;;;;;;;;65.00;44.50;;;;;5.07;66.28;102793.50;5040191;28;45315;-89
2022/01/25 09:39:39;;;;;;;;;47.50;41.00;;;;;4.89;66.22;102752.16;5040887;28;45519;-90
2022/01/25 09:42:08;;;;;;;;;56.50;47.50;;;;;4.74;66.27;102728.44;5039510;28;47033;-89
2022/01/25 09:44:36;;;;;;;;;50.00;40.00;;;;;4.87;66.24;102771.53;5038999;28;45408;-89
2022/01/25 09:47:03;;;;;;;;;45.00;39.75;;;;;5.01;66.25;102779.44;5011943;28;45352;-88
2022/01/25 09:49:28;;;;;;;;;54.25;42.75;;;;;4.82;66.35;102750.41;5022874;28;45368;-89
2022/01/25 09:51:55;;;;;;;;;48.25;38.75;;;;;5.02;66.10;102774.16;5039867;28;46353;-89
2022/01/25 09:54:21;;;;;;;;;48.00;40.50;;;;;5.00;65.84;102786.47;5023021;28;45660;-89
2022/01/25 09:56:46;;;;;;;;;59.00;46.00;;;;;5.07;66.31;102780.31;5040162;28;45509;-89
2022/01/25 09:59:12;;;;;;;;;45.50;40.00;;;;;5.03;65.87;102794.41;5022018;28;45299;-89
2022/01/25 10:01:37;;;;;;;;;61.25;46.75;;;;;5.02;66.06;102797.03;5042648;28;45952;-89
2022/01/25 10:04:23;;;;;;;;;59.00;45.75;;;;;5.10;66.27;102784.72;5041293;28;45380;-89
2022/01/25 10:06:49;;;;;;;;;53.75;44.75;;;;;4.85;66.30;102750.41;5038859;28;45475;-89
2022/01/25 10:09:15;;;;;;;;;62.00;49.25;;;;;5.10;66.05;102779.44;5039216;28;45415;-86
2022/01/25 10:11:41;;;;;;;;;62.00;49.00;;;;;5.10;65.88;102796.16;5039238;28;45492;-87
2022/01/25 10:14:07;;;;;;;;;62.25;47.00;;;;;4.94;66.53;102767.13;5021726;28;46467;-87
2022/01/25 10:16:38;;;;;;;;;61.25;49.00;;;;;5.10;65.73;102780.31;5024327;28;45151;-87
2022/01/25 10:19:13;;;;;;;;;60.25;43.00;;;;;5.03;66.06;102775.94;5036998;28;45408;-87
2022/01/25 10:21:48;;;;;;;;;58.00;48.25;;;;;5.09;66.53;102802.31;5040240;28;46703;-87
2022/01/25 10:24:28;;;;;;;;;57.00;42.25;;;;;5.08;65.82;102781.22;5038934;28;45633;-87
2022/01/25 10:27:02;;;;;;;;;57.00;44.25;;;;;4.96;66.17;102765.38;5020768;28;47448;-87
2022/01/25 10:29:36;;;;;;;;;57.50;42.50;;;;;5.17;66.22;102790.88;5020169;28;45613;-87
2022/01/25 10:32:16;;;;;;;;;57.50;44.00;;;;;5.20;65.97;102801.44;5037972;28;46496;-87
2022/01/25 10:34:46;;;;;;;;;63.00;48.25;;;;;5.27;66.02;102801.44;5004555;28;45448;-87
2022/01/25 10:37:14;;;;;;;;;53.75;42.75;;;;;5.29;66.21;102802.31;5017915;28;45267;-87
2022/01/25 10:39:45;;;;;;;;;60.25;45.50;;;;;5.01;65.53;102772.41;5033934;28;45521;-87
2022/01/25 10:42:26;;;;;;;;;55.00;45.75;;;;;5.31;65.94;102797.00;5034813;28;45570;-87
2022/01/25 10:44:55;;;;;;;;;67.75;49.00;;;;;5.34;65.93;102799.69;5036800;28;45801;-86
2022/01/25 10:47:42;;;;;;;;;60.50;44.50;;;;;5.36;65.78;102799.66;5019075;28;45590;-87
2022/01/25 10:50:22;;;;;;;;;60.00;46.50;;;;;5.31;65.90;102800.53;5037199;28;45399;-87
2022/01/25 10:53:07;;;;;;;;;62.00;47.00;;;;;5.19;65.48;102794.38;5018511;28;47012;-87
2022/01/25 10:55:43;;;;;;;;;65.00;50.00;;;;;5.11;65.77;102789.13;5021280;28;45358;-87
2022/01/25 10:58:10;;;;;;;;;67.75;49.75;;;;;5.29;65.67;102786.47;5033411;28;45503;-87
2022/01/25 11:00:42;;;;;;;;;62.25;44.75;;;;;5.29;65.75;102789.13;5036982;28;45364;-87
2022/01/25 11:03:09;;;;;;;;;60.75;49.50;;;;;5.29;66.15;102790.84;5018578;28;48606;-87
2022/01/25 11:05:38;;;;;;;;;59.50;46.75;;;;;5.32;66.06;102790.88;5036595;28;45610;-87
2022/01/25 11:08:16;;;;;;;;;61.25;48.00;;;;;5.06;65.67;102743.38;5037079;28;45421;-87
2022/01/25 11:10:51;;;;;;;;;67.25;50.50;;;;;5.35;66.13;102790.84;5009707;28;45461;-87
2022/01/25 11:13:50;;;;;;;;;64.75;48.25;;;;;5.37;66.18;102814.63;5037440;28;46392;-87
2022/01/25 11:16:10;;;;;;;;;63.50;48.00;;;;;5.21;65.98;102764.47;5031846;28;45245;-87
2022/01/25 11:18:37;;;;;;;;;60.75;47.25;;;;;5.27;66.54;102776.78;5016907;28;45507;-87
2022/01/25 11:21:08;;;;;;;;;65.00;49.50;;;;;5.31;66.73;102789.09;5035494;28;45601;-86
2022/01/25 11:23:37;;;;;;;;;67.25;50.00;;;;;5.34;66.35;102795.25;5034878;28;45523;-82
2022/01/25 11:26:05;;;;;;;;;61.25;48.50;;;;;5.27;66.59;102780.31;5035320;28;45447;-87
2022/01/25 11:28:32;;;;;;;;;58.25;45.50;;;;;5.33;66.88;102800.53;5035384;28;45544;-87
2022/01/25 11:31:02;;;;;;;;;62.75;47.50;;;;;5.34;66.35;102792.63;5017996;28;45255;-87
2022/01/25 11:33:29;;;;;;;;;65.75;49.25;;;;;5.13;66.54;102751.28;5016950;28;48070;-87
2022/01/25 11:35:55;;;;;;;;;64.75;47.50;;;;;5.18;66.06;102784.72;5035387;28;45506;-87
2022/01/25 11:38:47;;;;;;;;;58.75;47.00;;;;;5.42;66.49;102795.25;5036391;28;45526;-87
2022/01/25 11:41:16;;;;;;;;;59.75;48.25;;;;;5.40;65.99;102802.28;5036481;28;45558;-87
2022/01/25 11:43:44;;;;;;;;;62.75;45.25;;;;;5.44;65.72;102787.34;5033584;28;45420;-86
2022/01/25 11:46:09;;;;;;;;;53.25;42.50;;;;;5.44;66.18;102774.13;5030467;28;45716;-86
2022/01/25 11:48:44;;;;;;;;;54.25;43.75;;;;;5.45;66.21;102789.94;5022344;28;46648;-86
2022/01/25 11:51:20;;;;;;;;;59.75;47.25;;;;;5.55;65.71;102785.53;5030315;28;45396;-87
2022/01/25 11:53:48;;;;;;;;;68.25;50.25;;;;;5.46;65.65;102783.81;5031262;28;47908;-86
2022/01/25 11:56:15;;;;;;;;;58.50;46.00;;;;;5.54;65.66;102786.44;5029956;28;45949;-87
2022/01/25 11:58:41;;;;;;;;;61.75;47.25;;;;;5.27;65.85;102738.06;5033285;28;45539;-86
2022/01/25 12:01:20;;;;;;;;;60.75;48.50;;;;;5.38;65.90;102769.72;5033498;28;45298;-87
2022/01/25 12:03:50;;;;;;;;;59.00;44.00;;;;;5.62;65.95;102781.13;5032304;28;45491;-87
2022/01/25 12:06:28;;;;;;;;;62.50;47.00;;;;;5.47;65.29;102748.56;5032754;28;45328;-87
2022/01/25 12:09:06;;;;;;;;;59.25;43.00;;;;;5.66;65.51;102774.97;5026096;28;45468;-87
2022/01/25 12:11:50;;;;;;;;;57.75;45.25;;;;;5.51;65.52;102760.91;5032972;28;45473;-87
2022/01/25 12:14:41;;;;;;;;;55.75;45.50;;;;;5.64;65.48;102768.78;5030798;28;45567;-87
2022/01/25 12:17:06;;;;;;;;;52.00;43.50;;;;;5.65;65.88;102775.81;5004245;28;46115;-87
2022/01/25 12:19:57;;;;;;;;;59.00;46.75;;;;;5.66;65.35;102777.59;5030890;28;45485;-87
2022/01/25 12:25:33;;;;;;;;;62.75;48.50;;;;;5.64;65.44;102764.38;5029617;28;45471;-87
2022/01/25 12:28:05;;;;;;;;;59.00;44.75;;;;;5.65;66.03;102754.69;5010821;28;45471;-87
2022/01/25 12:30:46;;;;;;;;;61.00;48.00;;;;;5.67;65.61;102751.16;5033037;28;45329;-88
2022/01/25 12:33:27;;;;;;;;;58.75;46.75;;;;;5.63;65.59;102746.78;5014732;28;45525;-86
2022/01/25 12:36:03;;;;;;;;;59.75;47.00;;;;;5.69;65.58;102752.03;5032966;28;45687;-87
2022/01/25 12:38:37;;;;;;;;;59.00;46.50;;;;;5.73;65.51;102748.50;5012243;28;45357;-87
2022/01/25 12:41:30;;;;;;;;;52.25;42.75;;;;;5.79;65.77;102752.00;5032839;28;45443;-87
2022/01/25 12:43:58;;;;;;;;;55.00;42.50;;;;;5.83;65.32;102753.75;5024235;28;45482;-87
2022/01/25 12:46:28;;;;;;;;;58.00;44.50;;;;;5.85;65.44;102752.00;5031930;28;45549;-86
2022/01/25 12:48:55;;;;;;;;;59.00;45.50;;;;;5.73;65.16;102726.50;5029661;28;45487;-87
2022/01/25 12:51:26;;;;;;;;;56.00;45.50;;;;;5.67;65.11;102734.44;5029620;28;45258;-87
2022/01/25 12:53:54;;;;;;;;;60.50;47.25;;;;;5.75;65.29;102737.94;5032485;28;45429;-87
2022/01/25 12:56:23;;;;;;;;;59.25;49.25;;;;;5.79;65.01;102707.09;5021083;28;48262;-87
2022/01/25 12:58:53;;;;;;;;;63.00;49.00;;;;;5.91;65.45;102736.09;5038522;28;45479;-87
2022/01/25 13:01:21;;;;;;;;;31.50;24.00;;;;;5.70;65.11;102713.28;5036668;28;45436;-87
2022/01/25 13:03:52;;;;;;;;;67.00;50.00;;;;;5.64;65.09;102689.53;5032740;28;45285;-87
2022/01/25 13:06:23;;;;;;;;;60.25;45.75;;;;;5.75;65.22;102727.38;5031603;28;45459;-88
2022/01/25 13:14:29;;;;;;;;;62.75;50.25;;;;;6.01;65.30;102724.63;5033364;28;45434;-86
2022/01/25 13:17:01;;;;;;;;;63.75;50.50;;;;;6.06;65.16;102714.94;5026860;28;46418;-86
2022/01/25 13:19:37;;;;;;;;;63.75;51.00;;;;;5.84;65.08;102710.56;5017982;28;45460;-86
2022/01/25 13:22:12;;;;;;;;;62.25;49.00;;;;;5.87;64.81;102692.06;5038041;28;45653;-87